PWSweather.com
Personal Weather Stations
Station Observations
KVAGLENALL
West Henrico, Glen Allen, VA 23060-6503

West HenricoGlen Allen, VA 23060-6503

Lat: 37.6554, Lon: -77.5693

Elevation: 273

Station Type: Davis Vantage Pro II

www.glenallenweather.com

High Low Average
Temperature 54.5°F12.5°C 35.1°F1.7°C 44.1°F6.7°C
Dew Point 31.6°F-0.2°C 20.2°F-6.6°C 25.7°F-3.5°C
Winds 17.0 mph 27.4 kmh 2.0 mph 3.2 kmh 8.0 mph WSW12.9 kmh WSW
Wind Gusts 24.2 mph38.9 kmh 4.0 mph6.4 kmh 13.0 mph20.9 kmh
Humidity 58% 39% 49%
Pressure 30.21 in1023.0 mb 30.01 in1016.3 mb -
Precipitation 0.00 in0.0 mm - -
Hour Temp Dew Point Humidity Winds Wind Gusts Pressure Precip Precip Rate Daily Precip Total
12:00 AM 41.9°F5.5°C 20.5°F-6.4°C 42% 3.0 mph NNW4.8 kmh NNW 7.1 mph11.4 kmh 30.01 in1016.3 mb 0.00 in0.0 mm 0.00 in0.0 mm 0.00 in0.0 mm
12:15 AM 41.2°F5.1°C 19.9°F-6.7°C 42% 7.0 mph NW11.3 kmh NW 9.1 mph14.6 kmh 30.00 in1015.9 mb 0.00 in0.0 mm 0.00 in0.0 mm 0.00 in0.0 mm
12:30 AM 41.1°F5.1°C 19.8°F-6.8°C 42% 4.0 mph N6.4 kmh N 15.1 mph24.3 kmh 30.00 in1015.9 mb 0.00 in0.0 mm 0.00 in0.0 mm 0.00 in0.0 mm
12:45 AM 41.1°F5.1°C 19.8°F-6.8°C 42% 8.0 mph NW12.9 kmh NW 23.2 mph37.3 kmh 30.01 in1016.3 mb 0.00 in0.0 mm 0.00 in0.0 mm 0.00 in0.0 mm
01:00 AM 40.9°F4.9°C 20.2°F-6.6°C 43% 7.0 mph NW11.3 kmh NW 14.1 mph22.7 kmh 30.01 in1016.3 mb 0.00 in0.0 mm 0.00 in0.0 mm 0.00 in0.0 mm
01:15 AM 40.6°F4.8°C 20.4°F-6.4°C 44% 8.0 mph N12.9 kmh N 12.1 mph19.5 kmh 30.02 in1016.6 mb 0.00 in0.0 mm 0.00 in0.0 mm 0.00 in0.0 mm
01:30 AM 39.8°F4.3°C 20.2°F-6.6°C 45% 7.0 mph NW11.3 kmh NW 8.1 mph13.0 kmh 30.02 in1016.6 mb 0.00 in0.0 mm 0.00 in0.0 mm 0.00 in0.0 mm
01:45 AM 39.2°F4.0°C 20.7°F-6.3°C 47% 9.0 mph NW14.5 kmh NW 10.1 mph16.3 kmh 30.03 in1016.9 mb 0.00 in0.0 mm 0.00 in0.0 mm 0.00 in0.0 mm
02:00 AM 39.0°F3.9°C 20.5°F-6.4°C 47% 9.0 mph NNW14.5 kmh NNW 11.1 mph17.9 kmh 30.03 in1016.9 mb 0.00 in0.0 mm 0.00 in0.0 mm 0.00 in0.0 mm
02:15 AM 39.1°F3.9°C 20.6°F-6.3°C 47% 4.0 mph N6.4 kmh N 7.1 mph11.4 kmh 30.03 in1016.9 mb 0.00 in0.0 mm 0.00 in0.0 mm 0.00 in0.0 mm
02:30 AM 39.0°F3.9°C 20.5°F-6.4°C 47% 4.0 mph NW6.4 kmh NW 7.1 mph11.4 kmh 30.03 in1016.9 mb 0.00 in0.0 mm 0.00 in0.0 mm 0.00 in0.0 mm
02:45 AM 38.6°F3.7°C 21.1°F-6.1°C 49% 8.0 mph NW12.9 kmh NW 13.1 mph21.1 kmh 30.03 in1016.9 mb 0.00 in0.0 mm 0.00 in0.0 mm 0.00 in0.0 mm
03:00 AM 38.2°F3.4°C 20.7°F-6.3°C 49% 4.0 mph NW6.4 kmh NW 10.1 mph16.3 kmh 30.03 in1016.9 mb 0.00 in0.0 mm 0.00 in0.0 mm 0.00 in0.0 mm
03:15 AM 37.7°F3.2°C 20.7°F-6.3°C 50% 3.0 mph NNE4.8 kmh NNE 14.1 mph22.7 kmh 30.03 in1016.9 mb 0.00 in0.0 mm 0.00 in0.0 mm 0.00 in0.0 mm
03:30 AM 37.5°F3.1°C 21.0°F-6.1°C 51% 3.0 mph NW4.8 kmh NW 15.1 mph24.3 kmh 30.03 in1016.9 mb 0.00 in0.0 mm 0.00 in0.0 mm 0.00 in0.0 mm
03:45 AM 37.4°F3.0°C 20.9°F-6.2°C 51% 2.0 mph W3.2 kmh W 8.1 mph13.0 kmh 30.03 in1016.9 mb 0.00 in0.0 mm 0.00 in0.0 mm 0.00 in0.0 mm
04:00 AM 37.2°F2.9°C 20.7°F-6.3°C 51% 10.0 mph NW16.1 kmh NW 13.1 mph21.1 kmh 30.03 in1016.9 mb 0.00 in0.0 mm 0.00 in0.0 mm 0.00 in0.0 mm
04:15 AM 37.2°F2.9°C 20.7°F-6.3°C 51% 4.0 mph NW6.4 kmh NW 8.1 mph13.0 kmh 30.03 in1016.9 mb 0.00 in0.0 mm 0.00 in0.0 mm 0.00 in0.0 mm
04:30 AM 37.1°F2.8°C 20.7°F-6.3°C 51% 6.0 mph N9.7 kmh N 14.1 mph22.7 kmh 30.03 in1016.9 mb 0.00 in0.0 mm 0.00 in0.0 mm 0.00 in0.0 mm
04:45 AM 36.6°F2.6°C 21.1°F-6.1°C 53% 2.0 mph NNW3.2 kmh NNW 4.0 mph6.4 kmh 30.03 in1016.9 mb 0.00 in0.0 mm 0.00 in0.0 mm 0.00 in0.0 mm
05:00 AM 35.4°F1.9°C 20.8°F-6.2°C 55% 4.0 mph WNW6.4 kmh WNW 4.0 mph6.4 kmh 30.03 in1016.9 mb 0.00 in0.0 mm 0.00 in0.0 mm 0.00 in0.0 mm
05:15 AM 35.2°F1.8°C 21.1°F-6.1°C 56% 3.0 mph NNW4.8 kmh NNW 6.1 mph9.8 kmh 30.04 in1017.3 mb 0.00 in0.0 mm 0.00 in0.0 mm 0.00 in0.0 mm
05:30 AM 35.5°F1.9°C 20.9°F-6.2°C 55% 4.0 mph NW6.4 kmh NW 9.1 mph14.6 kmh 30.04 in1017.3 mb 0.00 in0.0 mm 0.00 in0.0 mm 0.00 in0.0 mm
05:45 AM 35.2°F1.8°C 21.1°F-6.1°C 56% 4.0 mph N6.4 kmh N 11.1 mph17.9 kmh 30.05 in1017.6 mb 0.00 in0.0 mm 0.00 in0.0 mm 0.00 in0.0 mm
06:00 AM 35.1°F1.7°C 21.4°F-5.9°C 57% 12.0 mph WNW19.3 kmh WNW 12.1 mph19.5 kmh 30.06 in1017.9 mb 0.00 in0.0 mm 0.00 in0.0 mm 0.00 in0.0 mm
06:15 AM 35.1°F1.7°C 21.4°F-5.9°C 57% 10.0 mph N16.1 kmh N 12.1 mph19.5 kmh 30.06 in1017.9 mb 0.00 in0.0 mm 0.00 in0.0 mm 0.00 in0.0 mm
06:30 AM 35.5°F1.9°C 21.8°F-5.7°C 57% 3.0 mph NW4.8 kmh NW 4.0 mph6.4 kmh 30.07 in1018.3 mb 0.00 in0.0 mm 0.00 in0.0 mm 0.00 in0.0 mm
06:45 AM 36.1°F2.3°C 21.5°F-5.8°C 55% 5.0 mph WSW8.0 kmh WSW 18.2 mph29.3 kmh 30.07 in1018.3 mb 0.00 in0.0 mm 0.00 in0.0 mm 0.00 in0.0 mm
07:00 AM 36.4°F2.4°C 21.8°F-5.7°C 55% 5.0 mph ENE8.0 kmh ENE 10.1 mph16.3 kmh 30.07 in1018.3 mb 0.00 in0.0 mm 0.00 in0.0 mm 0.00 in0.0 mm
07:15 AM 36.3°F2.4°C 21.7°F-5.7°C 55% 6.0 mph N9.7 kmh N 6.1 mph9.8 kmh 30.07 in1018.3 mb 0.00 in0.0 mm 0.00 in0.0 mm 0.00 in0.0 mm
07:30 AM 36.1°F2.3°C 21.5°F-5.8°C 55% 3.0 mph NW4.8 kmh NW 10.1 mph16.3 kmh 30.07 in1018.3 mb 0.00 in0.0 mm 0.00 in0.0 mm 0.00 in0.0 mm
07:45 AM 36.3°F2.4°C 22.1°F-5.5°C 56% 4.0 mph NW6.4 kmh NW 10.1 mph16.3 kmh 30.08 in1018.6 mb 0.00 in0.0 mm 0.00 in0.0 mm 0.00 in0.0 mm
08:00 AM 36.3°F2.4°C 22.1°F-5.5°C 56% 5.0 mph N8.0 kmh N 5.1 mph8.2 kmh 30.07 in1018.3 mb 0.00 in0.0 mm 0.00 in0.0 mm 0.00 in0.0 mm
08:15 AM 36.2°F2.3°C 21.6°F-5.8°C 55% 4.0 mph N6.4 kmh N 12.1 mph19.5 kmh 30.08 in1018.6 mb 0.00 in0.0 mm 0.00 in0.0 mm 0.00 in0.0 mm
08:30 AM 36.9°F2.7°C 22.2°F-5.4°C 55% 6.0 mph NNE9.7 kmh NNE 12.1 mph19.5 kmh 30.08 in1018.6 mb 0.00 in0.0 mm 0.00 in0.0 mm 0.00 in0.0 mm
08:45 AM 38.4°F3.6°C 22.3°F-5.4°C 52% 7.0 mph NW11.3 kmh NW 8.1 mph13.0 kmh 30.08 in1018.6 mb 0.00 in0.0 mm 0.00 in0.0 mm 0.00 in0.0 mm
09:00 AM 39.9°F4.4°C 22.3°F-5.4°C 49% 9.0 mph NNW14.5 kmh NNW 16.2 mph26.1 kmh 30.09 in1019.0 mb 0.00 in0.0 mm 0.00 in0.0 mm 0.00 in0.0 mm
09:15 AM 40.7°F4.8°C 22.6°F-5.2°C 48% 10.0 mph NE16.1 kmh NE 24.2 mph38.9 kmh 30.09 in1019.0 mb 0.00 in0.0 mm 0.00 in0.0 mm 0.00 in0.0 mm
09:30 AM 41.4°F5.2°C 22.7°F-5.2°C 47% 17.0 mph NNE27.4 kmh NNE 20.2 mph32.5 kmh 30.09 in1019.0 mb 0.00 in0.0 mm 0.00 in0.0 mm 0.00 in0.0 mm
09:45 AM 42.2°F5.7°C 23.4°F-4.8°C 47% 4.0 mph N6.4 kmh N 19.2 mph30.9 kmh 30.09 in1019.0 mb 0.00 in0.0 mm 0.00 in0.0 mm 0.00 in0.0 mm
10:00 AM 43.2°F6.2°C 23.3°F-4.8°C 45% 9.0 mph NNE14.5 kmh NNE 17.2 mph27.7 kmh 30.09 in1019.0 mb 0.00 in0.0 mm 0.00 in0.0 mm 0.00 in0.0 mm
10:15 AM 44.3°F6.8°C 23.8°F-4.6°C 44% 9.0 mph N14.5 kmh N 16.2 mph26.1 kmh 30.09 in1019.0 mb 0.00 in0.0 mm 0.00 in0.0 mm 0.00 in0.0 mm
10:30 AM 45.3°F7.4°C 25.3°F-3.7°C 45% 6.0 mph NE9.7 kmh NE 21.2 mph34.1 kmh 30.10 in1019.3 mb 0.00 in0.0 mm 0.00 in0.0 mm 0.00 in0.0 mm
10:45 AM 45.2°F7.3°C 24.6°F-4.1°C 44% 4.0 mph NW6.4 kmh NW 12.1 mph19.5 kmh 30.09 in1019.0 mb 0.00 in0.0 mm 0.00 in0.0 mm 0.00 in0.0 mm
11:00 AM 45.9°F7.7°C 26.3°F-3.2°C 46% 12.0 mph N19.3 kmh N 13.1 mph21.1 kmh 30.10 in1019.3 mb 0.00 in0.0 mm 0.00 in0.0 mm 0.00 in0.0 mm
11:15 AM 46.9°F8.3°C 25.6°F-3.6°C 43% 8.0 mph NW12.9 kmh NW 21.2 mph34.1 kmh 30.11 in1019.6 mb 0.00 in0.0 mm 0.00 in0.0 mm 0.00 in0.0 mm
11:30 AM 47.5°F8.6°C 27.8°F-2.3°C 46% 16.0 mph N25.7 kmh N 20.2 mph32.5 kmh 30.11 in1019.6 mb 0.00 in0.0 mm 0.00 in0.0 mm 0.00 in0.0 mm
11:45 AM 47.9°F8.8°C 28.7°F-1.8°C 47% 4.0 mph NE6.4 kmh NE 20.2 mph32.5 kmh 30.12 in1020.0 mb 0.00 in0.0 mm 0.00 in0.0 mm 0.00 in0.0 mm
12:00 PM 48.6°F9.2°C 29.3°F-1.5°C 47% 13.0 mph N20.9 kmh N 15.1 mph24.3 kmh 30.12 in1020.0 mb 0.00 in0.0 mm 0.00 in0.0 mm 0.00 in0.0 mm
12:15 PM 49.0°F9.4°C 29.2°F-1.6°C 46% 4.0 mph NE6.4 kmh NE 17.2 mph27.7 kmh 30.12 in1020.0 mb 0.00 in0.0 mm 0.00 in0.0 mm 0.00 in0.0 mm
12:30 PM 49.5°F9.7°C 29.0°F-1.7°C 45% 17.0 mph N27.4 kmh N 17.2 mph27.7 kmh 30.11 in1019.6 mb 0.00 in0.0 mm 0.00 in0.0 mm 0.00 in0.0 mm
12:45 PM 50.6°F10.3°C 30.0°F-1.1°C 45% 12.0 mph NNW19.3 kmh NNW 16.2 mph26.1 kmh 30.12 in1020.0 mb 0.00 in0.0 mm 0.00 in0.0 mm 0.00 in0.0 mm
01:00 PM 51.0°F10.6°C 29.8°F-1.2°C 44% 8.0 mph N12.9 kmh N 19.2 mph30.9 kmh 30.12 in1020.0 mb 0.00 in0.0 mm 0.00 in0.0 mm 0.00 in0.0 mm
01:15 PM 52.1°F11.2°C 30.8°F-0.7°C 44% 4.0 mph N6.4 kmh N 10.1 mph16.3 kmh 30.12 in1020.0 mb 0.00 in0.0 mm 0.00 in0.0 mm 0.00 in0.0 mm
01:30 PM 52.3°F11.3°C 31.6°F-0.2°C 45% 8.0 mph NNW12.9 kmh NNW 12.1 mph19.5 kmh 30.11 in1019.6 mb 0.00 in0.0 mm 0.00 in0.0 mm 0.00 in0.0 mm
01:45 PM 52.1°F11.2°C 30.3°F-0.9°C 43% 9.0 mph NE14.5 kmh NE 12.1 mph19.5 kmh 30.12 in1020.0 mb 0.00 in0.0 mm 0.00 in0.0 mm 0.00 in0.0 mm
02:00 PM 52.3°F11.3°C 30.5°F-0.8°C 43% 8.0 mph NW12.9 kmh NW 13.1 mph21.1 kmh 30.11 in1019.6 mb 0.00 in0.0 mm 0.00 in0.0 mm 0.00 in0.0 mm
02:15 PM 53.1°F11.7°C 31.2°F-0.4°C 43% 16.0 mph NNW25.7 kmh NNW 23.2 mph37.3 kmh 30.10 in1019.3 mb 0.00 in0.0 mm 0.00 in0.0 mm 0.00 in0.0 mm
02:30 PM 53.5°F11.9°C 30.4°F-0.9°C 41% 8.0 mph N12.9 kmh N 8.1 mph13.0 kmh 30.10 in1019.3 mb 0.00 in0.0 mm 0.00 in0.0 mm 0.00 in0.0 mm
02:45 PM 54.1°F12.3°C 31.5°F-0.3°C 42% 15.0 mph NNE24.1 kmh NNE 21.2 mph34.1 kmh 30.09 in1019.0 mb 0.00 in0.0 mm 0.00 in0.0 mm 0.00 in0.0 mm
03:00 PM 54.3°F12.4°C 30.5°F-0.8°C 40% 5.0 mph N8.0 kmh N 14.1 mph22.7 kmh 30.09 in1019.0 mb 0.00 in0.0 mm 0.00 in0.0 mm 0.00 in0.0 mm
03:15 PM 54.4°F12.4°C 30.6°F-0.8°C 40% 4.0 mph WNW6.4 kmh WNW 14.1 mph22.7 kmh 30.09 in1019.0 mb 0.00 in0.0 mm 0.00 in0.0 mm 0.00 in0.0 mm
03:30 PM 54.5°F12.5°C 30.0°F-1.1°C 39% 7.0 mph NW11.3 kmh NW 16.2 mph26.1 kmh 30.08 in1018.6 mb 0.00 in0.0 mm 0.00 in0.0 mm 0.00 in0.0 mm
03:45 PM 54.5°F12.5°C 30.0°F-1.1°C 39% 17.0 mph N27.4 kmh N 18.2 mph29.3 kmh 30.08 in1018.6 mb 0.00 in0.0 mm 0.00 in0.0 mm 0.00 in0.0 mm
04:00 PM 54.1°F12.3°C 30.9°F-0.6°C 41% 15.0 mph NW24.1 kmh NW 22.2 mph35.7 kmh 30.08 in1018.6 mb 0.00 in0.0 mm 0.00 in0.0 mm 0.00 in0.0 mm
04:15 PM 53.4°F11.9°C 30.3°F-0.9°C 41% 15.0 mph N24.1 kmh N 22.2 mph35.7 kmh 30.09 in1019.0 mb 0.00 in0.0 mm 0.00 in0.0 mm 0.00 in0.0 mm
04:30 PM 53.5°F11.9°C 31.0°F-0.6°C 42% 14.0 mph NNE22.5 kmh NNE 21.2 mph34.1 kmh 30.09 in1019.0 mb 0.00 in0.0 mm 0.00 in0.0 mm 0.00 in0.0 mm
04:45 PM 53.3°F11.8°C 29.6°F-1.3°C 40% 15.0 mph NW24.1 kmh NW 21.2 mph34.1 kmh 30.09 in1019.0 mb 0.00 in0.0 mm 0.00 in0.0 mm 0.00 in0.0 mm
05:00 PM 53.4°F11.9°C 30.9°F-0.6°C 42% 6.0 mph NW9.7 kmh NW 13.1 mph21.1 kmh 30.09 in1019.0 mb 0.00 in0.0 mm 0.00 in0.0 mm 0.00 in0.0 mm
05:15 PM 53.0°F11.7°C 30.5°F-0.8°C 42% 4.0 mph NW6.4 kmh NW 14.1 mph22.7 kmh 30.09 in1019.0 mb 0.00 in0.0 mm 0.00 in0.0 mm 0.00 in0.0 mm
05:30 PM 52.3°F11.3°C 30.5°F-0.8°C 43% 10.0 mph NNW16.1 kmh NNW 16.2 mph26.1 kmh 30.10 in1019.3 mb 0.00 in0.0 mm 0.00 in0.0 mm 0.00 in0.0 mm
05:45 PM 51.9°F11.1°C 30.7°F-0.7°C 44% 10.0 mph NNE16.1 kmh NNE 10.1 mph16.3 kmh 30.10 in1019.3 mb 0.00 in0.0 mm 0.00 in0.0 mm 0.00 in0.0 mm
06:00 PM 51.2°F10.7°C 30.0°F-1.1°C 44% 9.0 mph NW14.5 kmh NW 15.1 mph24.3 kmh 30.10 in1019.3 mb 0.00 in0.0 mm 0.00 in0.0 mm 0.00 in0.0 mm
06:15 PM 50.5°F10.3°C 29.9°F-1.2°C 45% 5.0 mph NNW8.0 kmh NNW 19.2 mph30.9 kmh 30.11 in1019.6 mb 0.00 in0.0 mm 0.00 in0.0 mm 0.00 in0.0 mm
06:30 PM 49.9°F9.9°C 29.4°F-1.4°C 45% 9.0 mph NW14.5 kmh NW 20.2 mph32.5 kmh 30.11 in1019.6 mb 0.00 in0.0 mm 0.00 in0.0 mm 0.00 in0.0 mm
06:45 PM 49.0°F9.4°C 29.2°F-1.6°C 46% 15.0 mph NE24.1 kmh NE 15.1 mph24.3 kmh 30.12 in1020.0 mb 0.00 in0.0 mm 0.00 in0.0 mm 0.00 in0.0 mm
07:00 PM 48.6°F9.2°C 28.3°F-2.1°C 45% 7.0 mph WNW11.3 kmh WNW 13.1 mph21.1 kmh 30.12 in1020.0 mb 0.00 in0.0 mm 0.00 in0.0 mm 0.00 in0.0 mm
07:15 PM 47.9°F8.8°C 28.7°F-1.8°C 47% 3.0 mph NW4.8 kmh NW 12.1 mph19.5 kmh 30.13 in1020.3 mb 0.00 in0.0 mm 0.00 in0.0 mm 0.00 in0.0 mm
07:30 PM 47.4°F8.6°C 28.2°F-2.1°C 47% 10.0 mph NNW16.1 kmh NNW 19.2 mph30.9 kmh 30.13 in1020.3 mb 0.00 in0.0 mm 0.00 in0.0 mm 0.00 in0.0 mm
07:45 PM 47.2°F8.4°C 28.1°F-2.2°C 47% 17.0 mph N27.4 kmh N 21.2 mph34.1 kmh 30.14 in1020.7 mb 0.00 in0.0 mm 0.00 in0.0 mm 0.00 in0.0 mm
08:00 PM 46.9°F8.3°C 27.3°F-2.6°C 46% 11.0 mph N17.7 kmh N 13.1 mph21.1 kmh 30.15 in1021.0 mb 0.00 in0.0 mm 0.00 in0.0 mm 0.00 in0.0 mm
08:15 PM 46.5°F8.1°C 27.4°F-2.6°C 47% 11.0 mph NNW17.7 kmh NNW 14.1 mph22.7 kmh 30.15 in1021.0 mb 0.00 in0.0 mm 0.00 in0.0 mm 0.00 in0.0 mm
08:30 PM 46.0°F7.8°C 27.5°F-2.5°C 48% 6.0 mph NNW9.7 kmh NNW 10.1 mph16.3 kmh 30.16 in1021.3 mb 0.00 in0.0 mm 0.00 in0.0 mm 0.00 in0.0 mm
08:45 PM 45.6°F7.6°C 27.6°F-2.4°C 49% 4.0 mph NE6.4 kmh NE 10.1 mph16.3 kmh 30.17 in1021.7 mb 0.00 in0.0 mm 0.00 in0.0 mm 0.00 in0.0 mm
09:00 PM 44.4°F6.9°C 27.4°F-2.6°C 51% 3.0 mph NNE4.8 kmh NNE 8.1 mph13.0 kmh 30.17 in1021.7 mb 0.00 in0.0 mm 0.00 in0.0 mm 0.00 in0.0 mm
09:15 PM 44.1°F6.7°C 27.2°F-2.7°C 51% 5.0 mph N8.0 kmh N 10.1 mph16.3 kmh 30.18 in1022.0 mb 0.00 in0.0 mm 0.00 in0.0 mm 0.00 in0.0 mm
09:30 PM 43.9°F6.6°C 27.0°F-2.8°C 51% 4.0 mph NW6.4 kmh NW 10.1 mph16.3 kmh 30.18 in1022.0 mb 0.00 in0.0 mm 0.00 in0.0 mm 0.00 in0.0 mm
09:45 PM 43.4°F6.3°C 27.0°F-2.8°C 52% 5.0 mph N8.0 kmh N 7.1 mph11.4 kmh 30.19 in1022.4 mb 0.00 in0.0 mm 0.00 in0.0 mm 0.00 in0.0 mm
10:00 PM 42.6°F5.9°C 27.2°F-2.7°C 54% 4.0 mph N6.4 kmh N 8.1 mph13.0 kmh 30.19 in1022.4 mb 0.00 in0.0 mm 0.00 in0.0 mm 0.00 in0.0 mm
10:15 PM 41.9°F5.5°C 26.9°F-2.8°C 55% 5.0 mph N8.0 kmh N 5.1 mph8.2 kmh 30.19 in1022.4 mb 0.00 in0.0 mm 0.00 in0.0 mm 0.00 in0.0 mm
10:30 PM 42.0°F5.6°C 27.0°F-2.8°C 55% 13.0 mph NNW20.9 kmh NNW 15.1 mph24.3 kmh 30.19 in1022.4 mb 0.00 in0.0 mm 0.00 in0.0 mm 0.00 in0.0 mm
10:45 PM 41.8°F5.4°C 26.8°F-2.9°C 55% 3.0 mph N4.8 kmh N 7.1 mph11.4 kmh 30.19 in1022.4 mb 0.00 in0.0 mm 0.00 in0.0 mm 0.00 in0.0 mm
11:00 PM 41.6°F5.3°C 26.7°F-2.9°C 55% 12.0 mph N19.3 kmh N 14.1 mph22.7 kmh 30.20 in1022.7 mb 0.00 in0.0 mm 0.00 in0.0 mm 0.00 in0.0 mm
11:15 PM 41.4°F5.2°C 26.9°F-2.8°C 56% 3.0 mph N4.8 kmh N 5.1 mph8.2 kmh 30.20 in1022.7 mb 0.00 in0.0 mm 0.00 in0.0 mm 0.00 in0.0 mm
11:30 PM 41.0°F5.0°C 26.5°F-3.1°C 56% 12.0 mph N19.3 kmh N 13.1 mph21.1 kmh 30.20 in1022.7 mb 0.00 in0.0 mm 0.00 in0.0 mm 0.00 in0.0 mm
11:45 PM 41.1°F5.1°C 26.2°F-3.2°C 55% 9.0 mph N14.5 kmh N 12.1 mph19.5 kmh 30.20 in1022.7 mb 0.00 in0.0 mm 0.00 in0.0 mm 0.00 in0.0 mm